createdAt,value
2023-01-07T00:01:30.322Z,5.18
2023-01-07T00:03:58.270Z,5.75
2023-01-07T00:06:29.279Z,5.05
2023-01-07T00:08:57.454Z,5.50
2023-01-07T00:11:26.656Z,4.70
2023-01-07T00:13:55.065Z,4.78
2023-01-07T00:16:24.554Z,5.47
2023-01-07T00:18:52.808Z,4.50
2023-01-07T00:21:21.019Z,4.75
2023-01-07T00:23:48.591Z,4.60
2023-01-07T00:26:20.528Z,4.18
2023-01-07T00:28:50.268Z,5.43
2023-01-07T00:31:19.301Z,4.25
2023-01-07T00:33:51.979Z,5.18
2023-01-07T00:36:19.915Z,4.40
2023-01-07T00:38:47.247Z,4.72
2023-01-07T00:41:14.175Z,4.20
2023-01-07T00:43:40.812Z,4.85
2023-01-07T00:46:09.050Z,3.78
2023-01-07T00:48:35.780Z,4.45
2023-01-07T00:51:02.515Z,3.95
2023-01-07T00:53:32.718Z,4.20
2023-01-07T00:55:59.638Z,3.75
2023-01-07T00:58:26.454Z,3.97
2023-01-07T01:00:57.421Z,4.55
2023-01-07T01:03:24.808Z,4.97
2023-01-07T01:05:51.717Z,4.72
2023-01-07T01:08:18.901Z,4.45
2023-01-07T01:10:46.066Z,5.25
2023-01-07T01:13:16.734Z,4.22
2023-01-07T01:15:46.366Z,4.68
2023-01-07T01:18:13.651Z,3.88
2023-01-07T01:20:42.125Z,4.32
2023-01-07T01:23:09.106Z,4.00
2023-01-07T01:25:36.897Z,4.22
2023-01-07T01:28:03.689Z,4.75
2023-01-07T01:30:30.429Z,4.85
2023-01-07T01:32:57.151Z,4.57
2023-01-07T01:35:26.146Z,4.97
2023-01-07T01:37:55.228Z,3.97
2023-01-07T01:40:22.027Z,3.90
2023-01-07T01:42:48.671Z,3.47
2023-01-07T01:45:15.465Z,4.13
2023-01-07T01:47:56.587Z,4.25
2023-01-07T01:50:40.242Z,3.85
2023-01-07T01:53:09.842Z,6.53
2023-01-07T01:55:59.010Z,4.07
2023-01-07T01:58:48.306Z,4.53
2023-01-07T02:01:15.280Z,4.18
2023-01-07T02:03:42.291Z,4.22
2023-01-07T02:06:14.590Z,4.35
2023-01-07T02:08:42.512Z,4.45
2023-01-07T02:11:33.685Z,4.45
2023-01-07T02:14:26.827Z,3.60
2023-01-07T02:17:06.488Z,5.28
2023-01-07T02:19:51.785Z,4.30
2023-01-07T02:23:01.991Z,3.47
2023-01-07T02:25:52.788Z,4.65
2023-01-07T02:28:41.133Z,3.60
2023-01-07T02:31:13.861Z,3.88
2023-01-07T02:34:04.838Z,3.75
2023-01-07T02:36:37.932Z,3.92
2023-01-07T02:39:34.447Z,3.65
2023-01-07T02:42:13.089Z,3.55
2023-01-07T02:44:50.740Z,3.40
2023-01-07T02:47:22.321Z,3.17
2023-01-07T02:49:49.410Z,3.92
2023-01-07T02:52:20.792Z,3.72
2023-01-07T02:54:57.289Z,3.35
2023-01-07T02:57:33.330Z,3.95
2023-01-07T03:00:36.967Z,3.72
2023-01-07T03:03:22.031Z,3.30
2023-01-07T03:06:07.730Z,3.60
2023-01-07T03:08:43.497Z,3.30
2023-01-07T03:11:10.667Z,2.92
2023-01-07T03:13:38.440Z,3.50
2023-01-07T03:16:30.435Z,3.60
2023-01-07T03:19:01.233Z,3.67
2023-01-07T03:21:28.617Z,3.45
2023-01-07T03:23:56.980Z,3.15
2023-01-07T03:26:27.527Z,3.33
2023-01-07T03:28:54.463Z,4.20
2023-01-07T03:31:22.565Z,3.13
2023-01-07T03:34:08.530Z,3.40
2023-01-07T03:36:44.206Z,3.50
2023-01-07T03:39:12.655Z,3.47
2023-01-07T03:41:58.736Z,3.13
2023-01-07T03:44:25.610Z,3.28
2023-01-07T03:46:52.854Z,3.13
2023-01-07T03:49:19.604Z,3.45
2023-01-07T03:51:46.742Z,3.22
2023-01-07T03:54:13.752Z,3.85
2023-01-07T03:56:41.785Z,3.75
2023-01-07T03:59:08.545Z,4.88
2023-01-07T04:01:35.318Z,4.85
2023-01-07T04:04:03.481Z,3.72
2023-01-07T04:06:30.484Z,5.05
2023-01-07T04:08:57.261Z,4.70
2023-01-07T04:11:24.127Z,4.63
2023-01-07T04:13:50.925Z,5.15
2023-01-07T04:16:17.653Z,4.13
2023-01-07T04:18:44.412Z,4.75
2023-01-07T04:21:11.124Z,4.72
2023-01-07T04:23:37.778Z,4.55
2023-01-07T04:26:04.864Z,4.25
2023-01-07T04:28:31.539Z,3.60
2023-01-07T04:31:01.757Z,3.60
2023-01-07T04:33:28.503Z,4.28
2023-01-07T04:35:55.327Z,4.97
2023-01-07T04:38:22.080Z,4.70
2023-01-07T04:40:48.771Z,4.53
2023-01-07T04:43:15.602Z,5.63
2023-01-07T04:45:42.352Z,3.97
2023-01-07T04:48:09.180Z,5.05
2023-01-07T04:50:35.881Z,5.00
2023-01-07T04:53:02.616Z,5.20
2023-01-07T04:55:29.769Z,6.50
2023-01-07T04:57:56.488Z,7.00
2023-01-07T05:00:23.291Z,6.53
2023-01-07T05:02:50.592Z,6.30
2023-01-07T05:05:17.336Z,22.83
2023-01-07T05:07:44.077Z,13.60
2023-01-07T05:10:11.232Z,24.23
2023-01-07T05:12:38.160Z,40.10
2023-01-07T05:15:05.792Z,46.17
2023-01-07T05:17:32.635Z,45.45
2023-01-07T05:19:59.286Z,51.40
2023-01-07T05:22:26.435Z,35.13
2023-01-07T05:24:53.067Z,36.45
2023-01-07T05:27:20.302Z,32.65
2023-01-07T05:29:46.975Z,29.67
2023-01-07T05:32:13.734Z,27.73
2023-01-07T05:34:40.891Z,25.08
2023-01-07T05:37:07.548Z,19.27
2023-01-07T05:39:34.477Z,19.35
2023-01-07T05:42:01.756Z,17.25
2023-01-07T05:44:28.442Z,16.35
2023-01-07T05:46:55.104Z,15.10
2023-01-07T05:49:21.957Z,14.75
2023-01-07T05:51:48.651Z,17.92
2023-01-07T05:54:15.341Z,15.60
2023-01-07T05:56:42.013Z,12.80
2023-01-07T05:59:08.663Z,13.18
2023-01-07T06:01:35.401Z,12.98
2023-01-07T06:04:03.353Z,12.70
2023-01-07T06:06:30.052Z,11.40
2023-01-07T06:08:57.137Z,11.93
2023-01-07T06:11:24.337Z,12.10
2023-01-07T06:13:51.065Z,12.63
2023-01-07T06:16:17.763Z,12.40
2023-01-07T06:18:44.699Z,14.80
2023-01-07T06:21:11.389Z,15.43
2023-01-07T06:23:38.349Z,14.55
2023-01-07T06:26:05.229Z,13.93
2023-01-07T06:28:32.026Z,47.30
2023-01-07T06:30:59.057Z,36.97
2023-01-07T06:33:28.714Z,31.05
2023-01-07T06:35:55.395Z,33.83
2023-01-07T06:38:22.058Z,21.17
2023-01-07T06:40:48.774Z,24.52
2023-01-07T06:43:16.503Z,23.83
2023-01-07T06:45:43.236Z,25.50
2023-01-07T06:48:09.933Z,29.95
2023-01-07T06:50:36.621Z,36.63
2023-01-07T06:53:03.304Z,31.90
2023-01-07T06:55:29.944Z,32.30
2023-01-07T06:57:58.926Z,28.42
2023-01-07T07:00:25.602Z,35.38
2023-01-07T07:02:53.657Z,31.30
2023-01-07T07:05:20.482Z,27.83
2023-01-07T07:07:47.161Z,25.15
2023-01-07T07:10:14.128Z,25.40
2023-01-07T07:12:42.152Z,24.27
2023-01-07T07:15:09.769Z,22.33
2023-01-07T07:17:36.507Z,24.40
2023-01-07T07:20:03.773Z,26.13
2023-01-07T07:22:30.434Z,25.65
2023-01-07T07:24:57.133Z,22.67
2023-01-07T07:27:23.791Z,25.38
2023-01-07T07:29:50.442Z,23.73
2023-01-07T07:32:17.117Z,24.95
2023-01-07T07:34:43.874Z,19.80
2023-01-07T07:37:10.526Z,22.50
2023-01-07T07:39:37.631Z,22.50
2023-01-07T07:42:05.744Z,20.02
2023-01-07T07:44:32.511Z,19.30
2023-01-07T07:46:59.228Z,21.50
2023-01-07T07:49:26.003Z,29.42
2023-01-07T07:51:52.687Z,31.75
2023-01-07T07:54:19.425Z,32.97
2023-01-07T07:56:46.120Z,30.98
2023-01-07T07:59:12.784Z,31.10
2023-01-07T08:01:39.762Z,30.52
2023-01-07T08:04:06.541Z,29.63
2023-01-07T08:06:34.339Z,21.25
2023-01-07T08:09:01.337Z,25.50
2023-01-07T08:11:28.045Z,20.13
2023-01-07T08:13:54.935Z,14.38
2023-01-07T08:16:21.703Z,14.07
2023-01-07T08:18:48.430Z,8.98
2023-01-07T08:21:15.143Z,6.30
2023-01-07T08:23:41.865Z,10.43
2023-01-07T08:26:08.518Z,10.07
2023-01-07T08:28:35.181Z,7.32
2023-01-07T08:31:04.059Z,6.50
2023-01-07T08:33:31.494Z,7.10
2023-01-07T08:35:58.135Z,8.20
2023-01-07T08:38:27.456Z,6.38
2023-01-07T08:40:54.640Z,6.65
2023-01-07T08:43:24.493Z,4.85
2023-01-07T08:45:51.843Z,5.88
2023-01-07T08:48:19.270Z,6.15
2023-01-07T08:50:50.614Z,7.57
2023-01-07T08:53:17.304Z,7.43
2023-01-07T08:55:43.934Z,6.15
2023-01-07T08:58:10.633Z,6.88
2023-01-07T09:00:37.372Z,16.05
2023-01-07T09:03:04.593Z,6.38
2023-01-07T09:05:32.584Z,8.25
2023-01-07T09:08:02.983Z,8.95
2023-01-07T09:10:29.945Z,11.82
2023-01-07T09:12:56.684Z,7.80
2023-01-07T09:15:23.409Z,5.00
2023-01-07T09:17:50.099Z,4.40
2023-01-07T09:20:16.978Z,3.03
2023-01-07T09:22:43.848Z,4.82
2023-01-07T09:25:10.622Z,5.00
2023-01-07T09:27:38.060Z,4.82
2023-01-07T09:30:06.337Z,3.92
2023-01-07T09:32:35.342Z,3.92
2023-01-07T09:35:02.092Z,4.15
2023-01-07T09:37:28.743Z,3.85
2023-01-07T09:39:55.458Z,4.97
2023-01-07T09:42:42.653Z,5.45
2023-01-07T09:45:14.203Z,3.65
2023-01-07T09:47:44.303Z,3.90
2023-01-07T09:50:27.774Z,3.08
2023-01-07T09:52:57.318Z,3.83
2023-01-07T09:55:38.212Z,4.47
2023-01-07T09:58:24.901Z,4.38
2023-01-07T10:01:29.276Z,4.80
2023-01-07T10:04:17.257Z,3.92
2023-01-07T10:06:53.800Z,4.28
2023-01-07T10:09:43.548Z,4.47
2023-01-07T10:12:17.929Z,3.72
2023-01-07T10:15:06.647Z,4.38
2023-01-07T10:17:39.481Z,5.43
2023-01-07T10:20:21.384Z,5.20
2023-01-07T10:23:08.492Z,4.90
2023-01-07T10:25:56.971Z,6.03
2023-01-07T10:28:38.980Z,4.72
2023-01-07T10:31:07.472Z,5.00
2023-01-07T10:33:34.234Z,5.30
2023-01-07T10:36:19.666Z,5.97
2023-01-07T10:38:56.454Z,6.15
2023-01-07T10:41:30.380Z,5.78
2023-01-07T10:44:04.589Z,5.22
2023-01-07T10:46:49.074Z,7.18
2023-01-07T10:49:47.613Z,6.70
2023-01-07T10:52:39.324Z,6.43
2023-01-07T10:55:57.251Z,5.47
2023-01-07T10:58:24.669Z,5.88
2023-01-07T11:00:51.439Z,6.80
2023-01-07T11:03:23.592Z,12.55
2023-01-07T11:06:02.168Z,9.77
2023-01-07T11:08:38.583Z,5.93
2023-01-07T11:11:06.073Z,6.22
2023-01-07T11:13:35.678Z,7.45
2023-01-07T11:16:09.066Z,7.15
2023-01-07T11:18:58.659Z,5.78
2023-01-07T11:21:43.822Z,5.80
2023-01-07T11:24:34.243Z,6.05
2023-01-07T11:27:14.133Z,6.10
2023-01-07T11:29:46.013Z,5.32
2023-01-07T11:32:28.152Z,7.15
2023-01-07T11:35:02.384Z,7.10
2023-01-07T11:37:39.285Z,6.32
2023-01-07T11:40:21.834Z,5.88
2023-01-07T11:42:57.335Z,6.03
2023-01-07T11:45:28.213Z,6.35
2023-01-07T11:48:22.753Z,6.13
2023-01-07T11:51:02.324Z,6.10
2023-01-07T11:53:33.242Z,5.65
2023-01-07T11:56:03.092Z,5.80
2023-01-07T11:58:36.420Z,7.15
2023-01-07T12:01:09.231Z,5.47
2023-01-07T12:03:37.659Z,5.78
2023-01-07T12:06:08.969Z,6.53
2023-01-07T12:08:35.774Z,6.40
2023-01-07T12:11:10.285Z,6.65
2023-01-07T12:13:40.665Z,5.95
2023-01-07T12:16:09.203Z,4.85
2023-01-07T12:18:54.588Z,5.57
2023-01-07T12:21:45.274Z,5.38
2023-01-07T12:24:28.678Z,5.07
2023-01-07T12:27:02.981Z,5.28
2023-01-07T12:29:36.455Z,6.28
2023-01-07T12:32:15.644Z,5.90
2023-01-07T12:34:49.771Z,4.90
2023-01-07T12:37:28.581Z,5.60
2023-01-07T12:40:03.324Z,5.40
2023-01-07T12:42:35.180Z,8.90
2023-01-07T12:45:05.964Z,9.05
2023-01-07T12:47:40.309Z,6.88
2023-01-07T12:50:10.793Z,5.05
2023-01-07T12:52:48.925Z,6.03
2023-01-07T12:55:37.195Z,5.85
2023-01-07T12:58:28.888Z,6.25
2023-01-07T13:01:18.867Z,6.05
2023-01-07T13:04:13.793Z,6.15
2023-01-07T13:06:53.719Z,5.93
2023-01-07T13:09:38.740Z,6.80
2023-01-07T13:12:40.620Z,7.65
2023-01-07T13:15:14.984Z,6.75
2023-01-07T13:17:41.730Z,6.13
2023-01-07T13:20:13.340Z,3.95
2023-01-07T13:22:51.720Z,3.78
2023-01-07T13:25:39.996Z,3.28
2023-01-07T13:28:20.572Z,3.10
2023-01-07T13:30:59.760Z,3.65
2023-01-07T13:33:38.610Z,4.63
2023-01-07T13:36:26.017Z,5.18
2023-01-07T13:39:31.351Z,4.85
2023-01-07T13:42:01.112Z,4.88
2023-01-07T13:44:52.054Z,4.18
2023-01-07T13:47:21.237Z,4.35
2023-01-07T13:52:25.886Z,5.28
2023-01-07T13:54:57.704Z,4.85
2023-01-07T13:57:24.335Z,4.47
2023-01-07T13:59:53.642Z,2.22
2023-01-07T14:02:23.911Z,11.05
2023-01-07T14:05:09.230Z,7.45
2023-01-07T14:07:50.883Z,3.92
2023-01-07T14:10:37.688Z,6.75
2023-01-07T14:13:12.222Z,3.50
2023-01-07T14:16:04.995Z,6.03
2023-01-07T14:18:31.629Z,3.92
2023-01-07T14:21:18.945Z,7.22
2023-01-07T14:24:04.204Z,5.10
2023-01-07T14:26:41.952Z,4.68
2023-01-07T14:29:14.603Z,3.10
2023-01-07T14:31:41.456Z,3.22
2023-01-07T14:34:21.336Z,2.92
2023-01-07T14:37:06.503Z,3.03
2023-01-07T14:39:40.251Z,3.58
2023-01-07T14:42:19.019Z,6.57
2023-01-07T14:44:51.156Z,4.57
2023-01-07T14:47:45.962Z,4.63
2023-01-07T14:50:36.004Z,7.85
2023-01-07T14:53:40.058Z,5.63
2023-01-07T14:56:31.839Z,3.53
2023-01-07T14:59:11.215Z,4.78
2023-01-07T15:02:15.834Z,5.00
2023-01-07T15:05:07.125Z,3.15
2023-01-07T15:07:36.749Z,4.90
2023-01-07T15:10:36.153Z,5.82
2023-01-07T15:13:23.387Z,5.40
2023-01-07T15:16:03.651Z,4.15
2023-01-07T15:18:33.025Z,5.97
2023-01-07T15:23:57.888Z,7.88
2023-01-07T15:27:02.122Z,9.13
2023-01-07T15:29:42.538Z,13.45
2023-01-07T15:32:11.803Z,9.60
2023-01-07T15:37:05.948Z,15.63
2023-01-07T15:39:34.081Z,21.05
2023-01-07T15:42:01.385Z,28.00
2023-01-07T15:44:40.700Z,14.50
2023-01-07T15:47:32.803Z,18.17
2023-01-07T15:50:19.412Z,18.70
2023-01-07T15:52:54.801Z,15.65
2023-01-07T15:55:24.477Z,17.95
2023-01-07T15:57:53.548Z,18.90
2023-01-07T16:00:21.357Z,15.45
2023-01-07T16:02:48.149Z,20.48
2023-01-07T16:05:17.561Z,18.20
2023-01-07T16:07:59.600Z,18.58
2023-01-07T16:10:35.824Z,18.23
2023-01-07T16:13:05.409Z,17.85
2023-01-07T16:15:34.698Z,17.98
2023-01-07T16:20:34.164Z,11.70
2023-01-07T16:23:10.951Z,16.08
2023-01-07T16:25:44.393Z,16.50
2023-01-07T16:28:17.340Z,17.38
2023-01-07T16:30:44.690Z,17.52
2023-01-07T16:33:20.645Z,13.32
2023-01-07T16:35:48.606Z,13.80
2023-01-07T16:38:17.474Z,15.90
2023-01-07T16:40:45.510Z,22.27
2023-01-07T16:43:45.509Z,24.50
2023-01-07T16:46:17.527Z,20.63
2023-01-07T16:48:46.258Z,19.90
2023-01-07T16:51:36.835Z,20.92
2023-01-07T16:54:23.413Z,27.05
2023-01-07T16:56:54.315Z,24.83
2023-01-07T16:59:22.985Z,21.40
2023-01-07T17:01:49.865Z,20.70
2023-01-07T17:04:19.981Z,22.45
2023-01-07T17:06:46.775Z,20.50
2023-01-07T17:09:21.168Z,21.48
2023-01-07T17:11:53.008Z,21.00
2023-01-07T17:14:35.153Z,19.90
2023-01-07T17:17:02.780Z,19.25
2023-01-07T17:19:58.366Z,21.98
2023-01-07T17:22:32.522Z,23.30
2023-01-07T17:25:15.761Z,20.52
2023-01-07T17:27:54.996Z,21.88
2023-01-07T17:30:22.267Z,23.00
2023-01-07T17:32:53.212Z,20.77
2023-01-07T17:35:22.004Z,16.20
2023-01-07T17:37:49.316Z,16.92
2023-01-07T17:40:17.231Z,16.08
2023-01-07T17:43:04.112Z,16.92
2023-01-07T17:45:30.926Z,18.42
2023-01-07T17:47:59.464Z,18.88
2023-01-07T17:50:29.804Z,18.85
2023-01-07T17:52:56.825Z,22.75
2023-01-07T17:55:30.816Z,19.80
2023-01-07T17:57:58.195Z,15.52
2023-01-07T18:00:27.145Z,9.63
2023-01-07T18:02:54.130Z,14.00
2023-01-07T18:05:23.012Z,17.70
2023-01-07T18:07:52.096Z,17.00
2023-01-07T18:10:21.027Z,16.75
2023-01-07T18:12:48.133Z,17.70
2023-01-07T18:15:28.005Z,18.92
2023-01-07T18:17:54.717Z,16.00
2023-01-07T18:20:22.611Z,17.40
2023-01-07T18:22:49.757Z,21.27
2023-01-07T18:25:21.604Z,23.05
2023-01-07T18:27:53.619Z,21.77
2023-01-07T18:30:22.127Z,20.75
2023-01-07T18:32:51.352Z,20.17
2023-01-07T18:35:19.269Z,14.43
2023-01-07T18:37:50.278Z,14.98
2023-01-07T18:40:17.435Z,14.73
2023-01-07T18:42:44.151Z,14.48
2023-01-07T18:45:11.279Z,12.63
2023-01-07T18:47:39.289Z,14.70
2023-01-07T18:50:06.566Z,15.98
2023-01-07T18:52:34.476Z,15.43
2023-01-07T18:55:02.216Z,16.17
2023-01-07T18:57:28.892Z,15.43
2023-01-07T18:59:55.572Z,27.73
2023-01-07T19:02:22.329Z,18.15
2023-01-07T19:04:49.604Z,17.95
2023-01-07T19:07:17.538Z,16.23
2023-01-07T19:09:44.927Z,17.13
2023-01-07T19:12:12.322Z,18.90
2023-01-07T19:14:39.937Z,18.25
2023-01-07T19:17:07.831Z,18.67
2023-01-07T19:19:47.382Z,19.10
2023-01-07T19:22:16.177Z,25.05
2023-01-07T19:24:44.501Z,27.00
2023-01-07T19:27:11.437Z,23.23
2023-01-07T19:29:38.108Z,20.38
2023-01-07T19:32:05.127Z,19.83
2023-01-07T19:34:31.822Z,24.10
2023-01-07T19:36:58.466Z,18.55
2023-01-07T19:39:25.252Z,17.98
2023-01-07T19:41:52.505Z,19.77
2023-01-07T19:44:19.859Z,20.50
2023-01-07T19:46:46.504Z,21.23
2023-01-07T19:49:13.657Z,22.25
2023-01-07T19:51:41.925Z,23.15
2023-01-07T19:54:11.928Z,22.48
2023-01-07T19:56:40.284Z,22.98
2023-01-07T19:59:06.961Z,29.85
2023-01-07T20:01:33.983Z,38.60
2023-01-07T20:04:01.204Z,65.05
2023-01-07T20:06:29.975Z,45.83
2023-01-07T20:08:58.214Z,65.65
2023-01-07T20:11:25.442Z,69.28
2023-01-07T20:13:52.288Z,66.78
2023-01-07T20:16:24.281Z,66.40
2023-01-07T20:18:52.731Z,69.40
2023-01-07T20:21:21.633Z,67.55
2023-01-07T20:23:48.852Z,72.38
2023-01-07T20:26:21.943Z,64.18
2023-01-07T20:28:49.401Z,61.67
2023-01-07T20:31:17.981Z,70.97
2023-01-07T20:33:45.489Z,59.33
2023-01-07T20:36:17.420Z,50.60
2023-01-07T20:38:44.815Z,49.35
2023-01-07T20:41:14.313Z,48.80
2023-01-07T20:43:41.251Z,46.33
2023-01-07T20:46:08.502Z,46.17
2023-01-07T20:48:36.223Z,50.88
2023-01-07T20:51:07.282Z,63.38
2023-01-07T20:53:34.190Z,39.97
2023-01-07T20:56:01.684Z,29.52
2023-01-07T20:58:31.193Z,23.40
2023-01-07T21:00:58.013Z,25.20
2023-01-07T21:03:26.206Z,20.20
2023-01-07T21:05:57.195Z,20.95
2023-01-07T21:08:24.520Z,24.13
2023-01-07T21:10:51.979Z,22.55
2023-01-07T21:13:20.396Z,24.55
2023-01-07T21:15:47.085Z,25.30
2023-01-07T21:18:13.832Z,25.13
2023-01-07T21:20:41.043Z,26.52
2023-01-07T21:23:07.731Z,29.40
2023-01-07T21:25:34.435Z,28.80
2023-01-07T21:28:02.151Z,33.22
2023-01-07T21:30:29.481Z,31.75
2023-01-07T21:32:56.302Z,32.97
2023-01-07T21:35:23.054Z,42.88
2023-01-07T21:37:52.917Z,87.50
2023-01-07T21:40:19.867Z,110.88
2023-01-07T21:42:46.573Z,29.23
2023-01-07T21:45:13.304Z,20.27
2023-01-07T21:47:40.082Z,24.02
2023-01-07T21:50:07.254Z,37.65
2023-01-07T21:52:35.311Z,33.58
2023-01-07T21:55:02.688Z,33.00
2023-01-07T21:57:29.370Z,29.52
2023-01-07T21:59:56.068Z,28.08
2023-01-07T22:02:22.984Z,31.38
2023-01-07T22:04:50.439Z,31.13
2023-01-07T22:07:18.587Z,32.00
2023-01-07T22:09:45.564Z,33.47
2023-01-07T22:12:14.036Z,32.63
2023-01-07T22:14:41.274Z,33.60
2023-01-07T22:17:08.370Z,35.85
2023-01-07T22:19:35.015Z,40.10
2023-01-07T22:22:01.843Z,32.83
2023-01-07T22:24:28.672Z,34.35
2023-01-07T22:26:55.469Z,34.72
2023-01-07T22:29:22.253Z,31.50
2023-01-07T22:31:51.084Z,36.83
2023-01-07T22:34:17.894Z,30.70
2023-01-07T22:37:02.601Z,27.10
2023-01-07T22:39:38.187Z,24.88
2023-01-07T22:44:49.613Z,22.92
2023-01-07T22:47:18.678Z,24.00
2023-01-07T22:49:45.602Z,22.75
2023-01-07T22:52:12.621Z,22.13
2023-01-07T22:54:39.893Z,23.15
2023-01-07T22:57:08.764Z,22.27
2023-01-07T22:59:35.834Z,22.50
2023-01-07T23:02:02.632Z,22.05
2023-01-07T23:04:29.724Z,22.60
2023-01-07T23:06:56.467Z,22.65
2023-01-07T23:09:23.118Z,22.52
2023-01-07T23:11:50.751Z,22.33
2023-01-07T23:14:21.946Z,22.30
2023-01-07T23:16:49.012Z,22.60
2023-01-07T23:19:16.685Z,21.77
2023-01-07T23:21:45.838Z,22.25
2023-01-07T23:24:13.379Z,23.08
2023-01-07T23:26:40.347Z,21.98
2023-01-07T23:29:07.566Z,24.70
2023-01-07T23:31:35.450Z,23.13
2023-01-07T23:34:03.786Z,23.77
2023-01-07T23:36:30.616Z,24.35
2023-01-07T23:38:57.360Z,23.42
2023-01-07T23:41:24.541Z,23.25
2023-01-07T23:43:51.354Z,23.25
2023-01-07T23:46:20.686Z,23.45
2023-01-07T23:48:47.413Z,23.10
2023-01-07T23:51:17.017Z,23.02
2023-01-07T23:53:44.235Z,26.67
2023-01-07T23:56:11.003Z,24.67
2023-01-07T23:58:38.200Z,23.23
